»·PEaware :: SWA4557 KMCO-KFLL

SWA4557 :: KMCO-KFLL

FLIGHT INFORMATION

Flight Status: Arrived
Operator:
Southwest Airlines
More flights by this operator :: More flights under this callsign
Pilot: Drew L. (13237)
Aircraft: BOEING 737-800
(B738)
More flights by this aircraft type
Origin: KMCO Orlando Intl
United States
Destination: KFLL Ft Lauderdale-Hollywood Intl
United States
More flights between these airports :: More routes between these airports
Route: MLB FISEL7
File this flight plan on PilotEdge
Remarks: PBN / A1B1C1D1S1S2 DOF / 180505 REG / N806SB EET / KZMA0000 OPR / SWA PER / C RMK / TCAS SIMBRIEF
Altitude:
(Current/Filed)
25,000ft
Speed:
(Current/Filed)
471kts
Departed: 05-May-18 12:29 AM
Arrived: 05-May-18 01:09 AM
Distance/Time
Traveled:
155nm/0:40
Distance/Time
To Go:
Arrived

Flight Plot

Page will automatically refresh every two minutes.

Flight plan parsing failed; only flown route is shown


Map Options




Map Legend


Flown Route
Filed Route
Departure Airport
Arrival Airport
Navaid (VOR, NDB)
Fix

Horizontal Profiles

Position Reports

Time Latitude Longitude Heading Altitude Ground
Speed
05-May-18 00:15 28.435095 -81.300370 261 104ft 0kts
05-May-18 00:16 28.435095 -81.300370 261 104ft 0kts
05-May-18 00:17 28.435095 -81.300370 261 104ft 0kts
05-May-18 00:18 28.435095 -81.300370 261 104ft 0kts
05-May-18 00:19 28.435095 -81.300370 261 104ft 0kts
05-May-18 00:20 28.435095 -81.300370 261 104ft 0kts
05-May-18 00:21 28.435095 -81.300370 261 104ft 0kts
05-May-18 00:22 28.435095 -81.300370 261 104ft 0kts
05-May-18 00:23 28.435132 -81.300110 261 104ft 2kts
05-May-18 00:24 28.435063 -81.299459 309 104ft 2kts
05-May-18 00:25 28.434669 -81.299233 354 104ft 0kts
05-May-18 00:26 28.434669 -81.299233 354 104ft 0kts
05-May-18 00:27 28.435498 -81.297478 88 103ft 18kts
05-May-18 00:28 28.434444 -81.295876 180 103ft 16kts
05-May-18 00:29 28.397747 -81.296015 181 1291ft 186kts
05-May-18 00:30 28.342792 -81.282995 130 4215ft 238kts
05-May-18 00:31 28.312920 -81.209124 109 7555ft 274kts
05-May-18 00:32 28.283580 -81.127493 109 10960ft 302kts
05-May-18 00:33 28.250944 -81.036887 109 14489ft 323kts
05-May-18 00:34 28.216151 -80.940585 109 17986ft 341kts
05-May-18 00:35 28.179375 -80.839019 108 21050ft 359kts
05-May-18 00:36 28.140567 -80.732127 108 23693ft 376kts
05-May-18 00:37 28.095536 -80.622730 125 25082ft 408kts
05-May-18 00:38 28.010215 -80.529184 132 25076ft 440kts
05-May-18 00:39 27.921368 -80.433737 132 25070ft 441kts
05-May-18 00:40 27.849228 -80.356025 132 25060ft 441kts
05-May-18 00:41 27.760730 -80.260718 132 25063ft 441kts
05-May-18 00:42 27.680442 -80.174361 132 25064ft 441kts
05-May-18 00:43 27.591942 -80.079327 132 25056ft 441kts
05-May-18 00:44 27.503154 -79.984168 132 25049ft 441kts
05-May-18 00:45 27.414478 -79.889328 132 25046ft 441kts
05-May-18 00:46 27.325691 -79.794731 134 25044ft 442kts
05-May-18 00:47 27.210826 -79.743386 162 25046ft 455kts
05-May-18 00:48 27.088693 -79.707431 161 25041ft 454kts
05-May-18 00:49 26.966959 -79.671005 161 25037ft 454kts
05-May-18 00:50 26.864074 -79.643986 175 25021ft 457kts
05-May-18 00:51 26.764702 -79.674072 202 23155ft 446kts
05-May-18 00:52 26.656329 -79.726978 201 19207ft 425kts
05-May-18 00:53 26.551246 -79.777398 200 16564ft 401kts
05-May-18 00:54 26.451139 -79.825085 200 13905ft 385kts
05-May-18 00:55 26.359128 -79.877244 219 12920ft 358kts
05-May-18 00:56 26.289504 -79.945879 218 12102ft 316kts
05-May-18 00:57 26.227791 -80.005809 218 11271ft 293kts
05-May-18 00:58 26.172786 -80.067396 246 10070ft 291kts
05-May-18 00:59 26.149141 -80.148916 252 8800ft 285kts
05-May-18 01:00 26.147209 -80.230045 274 7828ft 267kts
05-May-18 01:01 26.148363 -80.309322 272 7009ft 249kts
05-May-18 01:02 26.146911 -80.380648 236 6100ft 238kts
05-May-18 01:03 26.093196 -80.374449 135 5230ft 216kts
05-May-18 01:04 26.078092 -80.317346 88 3928ft 186kts
05-May-18 01:05 26.077486 -80.266441 86 2305ft 158kts
05-May-18 01:06 26.077221 -80.220638 85 1009ft 131kts
05-May-18 01:07 26.077039 -80.181680 87 393ft 130kts
05-May-18 01:08 26.076864 -80.149961 91 16ft 49kts
05-May-18 01:09 26.074902 -80.139811 143 16ft 23kts
05-May-18 01:10 26.074077 -80.139153 136 16ft 0kts
05-May-18 01:11 26.074077 -80.139153 136 16ft 0kts

Navigation Log

Ident Type
Flight plan parsing failed, navigation log unavailable